Time;durP1;ratioP1;P1;durP2;ratioP2;P2;SDS_P1;SDS_P2;PMS_P1;PMS_P2;Temp;Humidity;BMP_temperature;BMP_pressure;BME280_temperature;BME280_humidity;BME280_pressure;Samples;Min_cycle;Max_cycle;Signal;HPM_P1;HPM_P2
2023/06/04 00:02:25;;;;;;;1.75;1.65;;;25.10;48.10;;;;;;5072652;28;20519;-66
2023/06/04 00:04:52;;;;;;;1.70;1.60;;;25.10;48.10;;;;;;5072598;28;20063;-66
2023/06/04 00:07:19;;;;;;;2.17;1.67;;;25.10;48.10;;;;;;5072569;28;20485;-66
2023/06/04 00:09:47;;;;;;;1.90;1.80;;;25.10;48.20;;;;;;5072074;28;20048;-66
2023/06/04 00:12:14;;;;;;;2.10;1.90;;;25.00;48.20;;;;;;5072829;28;20086;-66
2023/06/04 00:14:42;;;;;;;1.95;1.70;;;25.00;48.20;;;;;;5069393;28;20497;-66
2023/06/04 00:17:10;;;;;;;1.98;1.88;;;25.00;48.20;;;;;;5052507;28;20102;-66
2023/06/04 00:19:41;;;;;;;2.22;1.50;;;25.00;48.20;;;;;;5052499;28;20045;-66
2023/06/04 00:22:08;;;;;;;1.60;1.50;;;25.10;48.30;;;;;;5052484;28;20045;-66
2023/06/04 00:24:40;;;;;;;1.95;1.65;;;25.00;48.30;;;;;;5055652;28;20045;-66
2023/06/04 00:27:08;;;;;;;1.58;1.48;;;25.00;48.30;;;;;;5056063;28;20489;-66
2023/06/04 00:29:36;;;;;;;2.05;1.90;;;25.00;48.30;;;;;;5056462;28;20073;-66
2023/06/04 00:32:03;;;;;;;2.03;1.83;;;25.00;48.30;;;;;;5055852;28;20135;-66
2023/06/04 00:34:31;;;;;;;1.73;1.63;;;25.00;48.30;;;;;;5068788;28;20087;-66
2023/06/04 00:36:58;;;;;;;1.65;1.40;;;25.00;48.30;;;;;;5064433;28;20400;-66
2023/06/04 00:39:25;;;;;;;2.00;1.90;;;25.00;48.30;;;;;;5056128;28;20102;-66
2023/06/04 00:41:52;;;;;;;2.78;1.98;;;25.00;48.30;;;;;;5055673;28;20133;-66
2023/06/04 00:44:21;;;;;;;1.90;1.70;;;24.90;48.40;;;;;;5056240;28;20131;-66
2023/06/04 00:46:49;;;;;;;2.17;2.03;;;25.00;48.40;;;;;;5054549;28;20049;-66
2023/06/04 00:49:16;;;;;;;1.73;1.63;;;24.90;48.30;;;;;;5055630;28;20049;-66
2023/06/04 00:51:43;;;;;;;1.98;1.80;;;24.90;48.40;;;;;;5055493;28;20103;-66
2023/06/04 00:54:12;;;;;;;3.75;2.00;;;24.90;48.40;;;;;;5055087;28;20439;-66
2023/06/04 00:56:39;;;;;;;2.50;2.30;;;24.90;48.40;;;;;;5054294;28;20079;-66
2023/06/04 00:59:09;;;;;;;2.15;1.95;;;24.90;48.40;;;;;;5054986;28;20139;-66
2023/06/04 01:01:53;;;;;;;2.03;1.85;;;24.90;48.40;;;;;;5055439;28;20048;-66
2023/06/04 01:04:48;;;;;;;2.72;1.60;;;24.90;48.40;;;;;;5055376;28;20126;-66
2023/06/04 01:07:16;;;;;;;2.35;1.95;;;24.90;48.40;;;;;;5055245;28;20041;-66
2023/06/04 01:09:47;;;;;;;2.10;1.90;;;24.90;48.40;;;;;;5055243;28;20057;-66
2023/06/04 01:12:14;;;;;;;2.78;1.75;;;24.90;48.40;;;;;;5055430;28;20041;-66
2023/06/04 01:14:42;;;;;;;2.08;1.88;;;24.90;48.40;;;;;;5055400;28;20049;-66
2023/06/04 01:17:36;;;;;;;1.85;1.75;;;24.90;48.40;;;;;;5055332;28;20095;-66
2023/06/04 01:20:27;;;;;;;1.85;1.48;;;24.90;48.50;;;;;;5055372;28;20056;-66
2023/06/04 01:23:15;;;;;;;1.95;1.50;;;24.90;48.50;;;;;;5055201;28;20045;-66
2023/06/04 01:25:43;;;;;;;3.10;1.75;;;24.90;48.50;;;;;;5054837;28;20060;-66
2023/06/04 01:28:14;;;;;;;1.70;1.58;;;24.90;48.50;;;;;;5054151;28;20049;-66
2023/06/04 01:30:45;;;;;;;1.60;1.50;;;24.90;48.50;;;;;;5055187;28;20448;-66
2023/06/04 01:33:15;;;;;;;2.40;2.22;;;24.90;48.50;;;;;;5055205;28;20064;-66
2023/06/04 01:35:43;;;;;;;1.98;1.80;;;24.90;48.50;;;;;;5053149;28;20393;-66
2023/06/04 01:38:10;;;;;;;1.70;1.60;;;24.90;48.50;;;;;;5054861;28;20080;-66
2023/06/04 01:40:37;;;;;;;1.42;1.33;;;24.90;48.50;;;;;;5053474;28;20057;-66
2023/06/04 01:43:05;;;;;;;1.60;1.50;;;24.90;48.50;;;;;;5054274;28;20516;-70
2023/06/04 01:45:32;;;;;;;1.63;1.52;;;24.90;48.50;;;;;;5059610;28;20451;-66
2023/06/04 01:48:02;;;;;;;1.95;1.85;;;24.90;48.50;;;;;;5074909;28;20133;-66
2023/06/04 01:50:30;;;;;;;1.92;1.83;;;24.90;48.50;;;;;;5074618;28;20135;-66
2023/06/04 01:52:57;;;;;;;1.70;1.60;;;24.90;48.50;;;;;;5074390;28;20076;-66
2023/06/04 01:55:25;;;;;;;3.03;2.05;;;24.90;48.50;;;;;;5074316;28;20056;-66
2023/06/04 01:57:53;;;;;;;2.25;2.00;;;24.90;48.50;;;;;;5074270;28;20045;-66
2023/06/04 02:00:20;;;;;;;1.98;1.88;;;24.90;48.50;;;;;;5073224;28;20476;-66
2023/06/04 02:02:48;;;;;;;2.10;1.80;;;24.90;48.50;;;;;;5074287;28;20044;-66
2023/06/04 02:05:15;;;;;;;2.80;1.60;;;24.90;48.50;;;;;;5074469;28;20044;-66
2023/06/04 02:07:44;;;;;;;1.92;1.80;;;24.90;48.50;;;;;;5074611;28;20413;-66
2023/06/04 02:10:14;;;;;;;1.70;1.60;;;24.90;48.50;;;;;;5074096;28;20045;-66
2023/06/04 02:12:57;;;;;;;1.80;1.70;;;24.90;48.50;;;;;;5073916;28;20052;-66
2023/06/04 02:15:26;;;;;;;2.35;1.90;;;24.90;48.50;;;;;;5073799;28;20511;-66
2023/06/04 02:18:15;;;;;;;1.75;1.65;;;24.90;48.50;;;;;;5074023;28;20041;-66
2023/06/04 02:20:47;;;;;;;1.45;1.35;;;24.80;48.50;;;;;;5074227;28;20048;-66
2023/06/04 02:23:16;;;;;;;3.15;1.88;;;24.80;48.50;;;;;;5073809;28;20053;-66
2023/06/04 02:25:45;;;;;;;1.52;1.48;;;24.80;48.50;;;;;;5073973;28;20492;-66
2023/06/04 02:28:12;;;;;;;1.73;1.63;;;24.80;48.60;;;;;;5073899;28;20084;-67
2023/06/04 02:30:40;;;;;;;1.65;1.55;;;24.80;48.60;;;;;;5073812;28;20049;-66
2023/06/04 02:33:09;;;;;;;1.63;1.52;;;24.80;48.60;;;;;;5073575;28;20119;-66
2023/06/04 02:35:37;;;;;;;;;;;24.80;48.60;;;;;;5073781;28;20503;-66
2023/06/04 02:38:05;;;;;;;1.70;1.60;;;24.80;48.60;;;;;;5074018;28;19943;-66
2023/06/04 02:40:32;;;;;;;1.52;1.40;;;24.80;48.60;;;;;;5073021;28;20087;-66
2023/06/04 02:42:59;;;;;;;1.92;1.58;;;24.80;48.60;;;;;;5073699;28;20048;-66
2023/06/04 02:45:26;;;;;;;2.50;1.80;;;24.80;48.60;;;;;;5073720;28;20052;-66
2023/06/04 02:47:53;;;;;;;1.77;1.67;;;24.80;48.60;;;;;;5072955;28;20102;-66
2023/06/04 02:50:20;;;;;;;2.08;1.88;;;24.80;48.60;;;;;;5073599;28;20400;-66
2023/06/04 02:52:48;;;;;;;1.80;1.70;;;24.80;48.80;;;;;;5073629;28;20098;-65
2023/06/04 02:55:15;;;;;;;1.58;1.48;;;24.80;48.60;;;;;;5073466;28;20049;-66
2023/06/04 02:57:43;;;;;;;2.45;1.83;;;24.80;48.60;;;;;;5073688;28;20515;-66
2023/06/04 03:00:12;;;;;;;1.60;1.50;;;24.80;48.60;;;;;;5073132;28;20055;-66
2023/06/04 03:02:43;;;;;;;3.08;1.55;;;24.80;48.60;;;;;;5073359;28;20489;-66
2023/06/04 03:05:12;;;;;;;1.63;1.52;;;24.80;48.60;;;;;;5072727;28;20576;-66
2023/06/04 03:07:43;;;;;;;1.40;1.30;;;24.80;48.60;;;;;;5073627;28;20048;-66
2023/06/04 03:10:11;;;;;;;1.80;1.70;;;24.70;48.50;;;;;;5072840;28;20041;-66
2023/06/04 03:12:39;;;;;;;3.63;1.50;;;24.80;48.60;;;;;;5073114;28;20522;-66
2023/06/04 03:15:07;;;;;;;2.33;1.40;;;24.80;48.60;;;;;;5073094;28;20045;-66
2023/06/04 03:17:34;;;;;;;1.23;1.17;;;24.80;48.60;;;;;;5073084;28;20540;-66
2023/06/04 03:20:03;;;;;;;2.03;1.83;;;24.80;48.60;;;;;;5073090;28;20044;-66
2023/06/04 03:22:31;;;;;;;1.47;1.33;;;24.80;48.60;;;;;;5072658;28;20456;-66
2023/06/04 03:24:58;;;;;;;1.63;1.52;;;24.80;48.60;;;;;;5073094;28;20066;-66
2023/06/04 03:27:25;;;;;;;1.50;1.40;;;24.80;48.60;;;;;;5088702;28;20052;-66
2023/06/04 03:29:52;;;;;;;1.80;1.70;;;24.80;48.50;;;;;;5073531;28;20114;-66
2023/06/04 03:32:19;;;;;;;2.03;1.50;;;24.80;48.50;;;;;;5073023;28;20079;-66
2023/06/04 03:34:47;;;;;;;1.50;1.40;;;24.80;48.50;;;;;;5072859;28;20093;-66
2023/06/04 03:37:14;;;;;;;1.80;1.40;;;24.80;48.40;;;;;;5073182;28;20122;-66
2023/06/04 03:39:41;;;;;;;2.03;1.83;;;24.80;48.40;;;;;;5072829;28;20079;-66
2023/06/04 03:42:08;;;;;;;1.83;1.52;;;24.80;48.40;;;;;;5072413;28;20457;-66
2023/06/04 03:44:35;;;;;;;1.70;1.60;;;24.80;48.40;;;;;;5072425;28;20040;-66
2023/06/04 03:47:02;;;;;;;1.90;1.80;;;24.90;48.40;;;;;;5072941;28;20048;-66
2023/06/04 03:49:30;;;;;;;1.50;1.40;;;24.90;48.30;;;;;;5072723;28;20493;-66
2023/06/04 03:51:57;;;;;;;1.70;1.60;;;24.90;48.30;;;;;;5072896;28;20132;-66
2023/06/04 03:54:24;;;;;;;1.70;1.55;;;24.90;48.20;;;;;;5088051;28;20048;-66
2023/06/04 03:56:51;;;;;;;1.70;1.60;;;24.90;48.20;;;;;;5072892;28;20053;-66
2023/06/04 03:59:18;;;;;;;2.28;1.48;;;24.90;48.10;;;;;;5076008;28;20455;-66
2023/06/04 04:01:45;;;;;;;1.63;1.52;;;25.00;48.10;;;;;;5076468;28;20508;-66
2023/06/04 04:04:13;;;;;;;2.03;1.83;;;25.00;48.10;;;;;;5076715;28;20051;-66
2023/06/04 04:06:41;;;;;;;2.67;1.20;;;25.00;48.00;;;;;;5076567;28;20556;-66
2023/06/04 04:09:08;;;;;;;1.73;1.63;;;25.00;47.90;;;;;;5075491;28;20044;-66
2023/06/04 04:11:35;;;;;;;1.60;1.50;;;25.00;47.90;;;;;;5076076;28;20052;-66
2023/06/04 04:14:02;;;;;;;1.75;1.65;;;25.10;47.90;;;;;;5076558;28;20048;-66
2023/06/04 04:16:29;;;;;;;1.17;1.15;;;25.10;47.80;;;;;;5076131;28;20074;-67
2023/06/04 04:18:56;;;;;;;2.15;1.67;;;25.10;47.80;;;;;;5076272;28;20508;-66
2023/06/04 04:21:24;;;;;;;2.88;1.70;;;25.10;47.70;;;;;;5076101;28;20131;-66
2023/06/04 04:23:51;;;;;;;1.70;1.60;;;25.10;47.60;;;;;;5075969;28;20044;-66
2023/06/04 04:26:19;;;;;;;2.13;1.92;;;25.20;47.60;;;;;;5075286;28;20055;-66
2023/06/04 04:28:46;;;;;;;1.77;1.67;;;25.20;47.50;;;;;;5076075;28;20485;-66
2023/06/04 04:31:14;;;;;;;1.45;1.38;;;25.20;48.00;;;;;;5075819;28;20157;-66
2023/06/04 04:33:43;;;;;;;2.30;1.73;;;25.30;47.50;;;;;;5075786;28;20052;-66
2023/06/04 04:36:12;;;;;;;1.65;1.55;;;25.30;47.40;;;;;;5076125;28;20099;-66
2023/06/04 04:38:40;;;;;;;1.70;1.42;;;25.20;47.40;;;;;;5076374;28;20044;-66
2023/06/04 04:41:08;;;;;;;1.63;1.52;;;25.10;47.30;;;;;;5076119;28;20045;-66
2023/06/04 04:43:39;;;;;;;1.60;1.50;;;25.00;47.40;;;;;;5076155;28;20052;-66
2023/06/04 04:46:06;;;;;;;1.77;1.67;;;24.90;47.70;;;;;;5075743;28;20088;-66
2023/06/04 04:48:34;;;;;;;1.92;1.50;;;24.70;48.00;;;;;;5075769;28;20442;-69
2023/06/04 04:51:01;;;;;;;2.13;1.83;;;24.40;48.50;;;;;;5075902;28;20471;-66
2023/06/04 04:53:28;;;;;;;1.80;1.70;;;24.00;49.00;;;;;;5075672;28;20090;-66
2023/06/04 04:55:55;;;;;;;2.22;1.95;;;23.70;49.30;;;;;;5075359;28;20052;-66
2023/06/04 04:58:22;;;;;;;4.10;1.73;;;23.30;49.50;;;;;;5091269;28;20489;-66
2023/06/04 05:00:50;;;;;;;4.10;1.90;;;23.00;49.80;;;;;;5075556;28;20448;-66
2023/06/04 05:03:17;;;;;;;2.25;2.05;;;22.60;50.70;;;;;;5075570;28;20044;-66
2023/06/04 05:05:45;;;;;;;2.42;2.20;;;22.40;51.50;;;;;;5075393;28;20044;-66
2023/06/04 05:08:12;;;;;;;1.67;1.58;;;22.10;51.40;;;;;;5074527;28;20056;-66
2023/06/04 05:10:39;;;;;;;1.70;1.55;;;21.80;51.80;;;;;;5073485;28;20044;-66
2023/06/04 05:13:06;;;;;;;2.00;1.80;;;21.60;53.00;;;;;;5075163;28;20048;-66
2023/06/04 05:15:33;;;;;;;1.80;1.67;;;21.40;52.80;;;;;;5075398;28;20051;-66
2023/06/04 05:18:02;;;;;;;2.25;2.05;;;21.30;52.30;;;;;;5075544;28;20106;-66
2023/06/04 05:20:29;;;;;;;1.95;1.63;;;21.10;53.50;;;;;;5075402;28;20052;-65
2023/06/04 05:22:57;;;;;;;2.20;1.98;;;21.00;53.80;;;;;;5075421;28;20048;-66
2023/06/04 05:25:24;;;;;;;4.60;2.38;;;20.80;53.00;;;;;;5075104;28;20044;-66
2023/06/04 05:27:51;;;;;;;2.58;1.67;;;20.70;53.50;;;;;;5075364;28;20083;-66
2023/06/04 05:30:18;;;;;;;3.45;1.80;;;20.60;54.30;;;;;;5074928;28;20047;-66
2023/06/04 05:32:45;;;;;;;2.28;2.00;;;20.60;53.90;;;;;;5074880;28;20088;-66
2023/06/04 05:35:12;;;;;;;1.88;1.77;;;20.40;53.50;;;;;;5074846;28;20044;-66
2023/06/04 05:37:41;;;;;;;2.85;1.85;;;20.30;54.50;;;;;;5074728;28;20052;-65
2023/06/04 05:40:09;;;;;;;2.08;1.88;;;20.20;54.70;;;;;;5074778;28;20041;-66
2023/06/04 05:42:37;;;;;;;2.17;1.98;;;20.20;54.00;;;;;;5074535;28;20394;-66
2023/06/04 05:45:07;;;;;;;1.92;1.83;;;20.10;54.10;;;;;;5074968;28;20049;-66
2023/06/04 05:47:35;;;;;;;2.80;1.98;;;20.00;54.80;;;;;;5074905;28;20054;-66
2023/06/04 05:50:03;;;;;;;1.90;1.80;;;20.00;54.60;;;;;;5074814;28;20374;-66
2023/06/04 05:52:31;;;;;;;2.53;2.33;;;19.90;54.30;;;;;;5074835;28;20048;-66
2023/06/04 05:54:58;;;;;;;2.08;1.75;;;19.90;55.00;;;;;;5074493;28;20504;-66
2023/06/04 05:57:25;;;;;;;1.80;1.70;;;19.80;54.30;;;;;;5074612;28;20135;-66
2023/06/04 05:59:53;;;;;;;1.70;1.55;;;19.80;54.80;;;;;;5074328;28;20135;-66
2023/06/04 06:02:20;;;;;;;1.60;1.50;;;19.70;55.00;;;;;;5074531;28;20048;-66
2023/06/04 06:04:47;;;;;;;1.92;1.73;;;19.70;55.00;;;;;;5074557;28;20404;-66
2023/06/04 06:07:14;;;;;;;2.30;1.80;;;19.70;55.00;;;;;;5074293;28;20139;-65
2023/06/04 06:09:41;;;;;;;1.80;1.63;;;19.70;54.60;;;;;;5073746;28;20044;-66
2023/06/04 06:12:09;;;;;;;2.13;1.70;;;19.60;55.00;;;;;;5073250;28;20409;-66
2023/06/04 06:14:36;;;;;;;1.60;1.50;;;19.60;54.80;;;;;;5073965;28;20049;-66
2023/06/04 06:17:04;;;;;;;1.75;1.60;;;19.50;55.00;;;;;;5073958;28;20603;-66
2023/06/04 06:19:31;;;;;;;3.20;2.00;;;19.50;55.40;;;;;;5074124;28;20131;-65
2023/06/04 06:21:58;;;;;;;1.52;1.42;;;19.60;55.40;;;;;;5073962;28;20056;-66
2023/06/04 06:24:25;;;;;;;2.30;2.10;;;19.50;54.20;;;;;;5074555;28;20097;-65
2023/06/04 06:26:53;;;;;;;2.10;1.88;;;19.50;55.00;;;;;;5073835;28;20048;-66
2023/06/04 06:29:20;;;;;;;1.65;1.48;;;19.50;55.40;;;;;;5074468;28;20417;-67
2023/06/04 06:31:47;;;;;;;1.67;1.58;;;19.60;55.10;;;;;;5073647;28;20052;-68
2023/06/04 06:34:15;;;;;;;2.85;1.60;;;19.60;55.30;;;;;;5073778;28;20048;-68
2023/06/04 06:36:42;;;;;;;1.98;1.60;;;19.60;54.80;;;;;;5073976;28;20049;-68
2023/06/04 06:39:10;;;;;;;1.88;1.70;;;19.60;55.30;;;;;;5073635;28;20539;-68
2023/06/04 06:41:38;;;;;;;1.92;1.80;;;19.60;55.10;;;;;;5073804;28;20453;-68
2023/06/04 06:44:05;;;;;;;2.25;1.60;;;19.60;54.90;;;;;;5073124;28;20044;-69
2023/06/04 06:46:32;;;;;;;3.40;1.40;;;19.60;55.30;;;;;;5073759;28;20102;-68
2023/06/04 06:49:00;;;;;;;2.08;1.65;;;19.60;55.30;;;;;;5073825;28;20492;-68
2023/06/04 06:51:27;;;;;;;1.70;1.60;;;19.60;55.00;;;;;;5072816;28;20090;-68
2023/06/04 06:53:54;;;;;;;4.18;1.67;;;19.60;54.80;;;;;;5073380;28;20045;-70
2023/06/04 06:56:22;;;;;;;2.08;1.60;;;19.60;55.30;;;;;;5073557;28;20093;-69
2023/06/04 06:58:49;;;;;;;1.73;1.60;;;19.60;54.50;;;;;;5073507;28;20048;-68
2023/06/04 07:01:16;;;;;;;2.17;1.52;;;19.60;54.50;;;;;;5072477;28;20098;-69
2023/06/04 07:03:43;;;;;;;2.70;1.90;;;19.60;55.30;;;;;;5073525;28;20544;-68
2023/06/04 07:06:10;;;;;;;1.60;1.50;;;19.60;55.00;;;;;;5073548;28;20053;-68
2023/06/04 07:08:39;;;;;;;1.40;1.30;;;19.60;54.00;;;;;;5073102;28;20114;-68
2023/06/04 07:11:06;;;;;;;1.50;1.40;;;19.70;54.50;;;;;;5073528;28;20052;-69
2023/06/04 07:13:35;;;;;;;2.10;1.63;;;19.70;54.90;;;;;;5072901;28;20040;-68
2023/06/04 07:16:02;;;;;;;1.10;1.02;;;19.70;53.90;;;;;;5073517;28;20059;-69
2023/06/04 07:18:29;;;;;;;1.40;1.30;;;19.70;53.80;;;;;;5073238;28;20492;-68
2023/06/04 07:20:56;;;;;;;1.40;1.30;;;19.80;55.00;;;;;;5073374;28;20055;-68
2023/06/04 07:23:24;;;;;;;2.55;1.40;;;19.80;54.70;;;;;;5073186;28;20488;-68
2023/06/04 07:25:51;;;;;;;2.42;1.92;;;19.90;54.80;;;;;;5089010;28;20071;-68
2023/06/04 07:28:18;;;;;;;1.48;1.38;;;19.90;54.60;;;;;;5073054;28;20044;-68
2023/06/04 07:30:46;;;;;;;1.48;1.38;;;19.90;54.40;;;;;;5073422;28;20071;-66
2023/06/04 07:33:13;;;;;;;1.70;1.40;;;20.00;53.90;;;;;;5075514;28;20098;-66
2023/06/04 07:35:40;;;;;;;1.23;1.13;;;20.00;54.10;;;;;;5079296;28;20443;-66
2023/06/04 07:38:07;;;;;;;1.30;1.20;;;20.10;54.30;;;;;;5078922;28;20484;-66
2023/06/04 07:40:35;;;;;;;1.20;1.10;;;20.10;54.40;;;;;;5079939;28;20121;-66
2023/06/04 07:43:02;;;;;;;3.38;1.20;;;20.10;53.80;;;;;;5079388;28;20049;-66
2023/06/04 07:45:30;;;;;;;1.35;1.25;;;20.10;54.10;;;;;;5072797;28;20087;-66
2023/06/04 07:48:01;;;;;;;1.75;1.30;;;20.10;54.40;;;;;;5060036;28;20048;-66
2023/06/04 07:50:29;;;;;;;1.30;1.20;;;20.10;54.00;;;;;;5059842;28;20467;-66
2023/06/04 07:52:59;;;;;;;1.58;1.48;;;20.10;53.70;;;;;;5058876;28;20053;-66
2023/06/04 07:55:27;;;;;;;1.55;1.30;;;20.20;54.20;;;;;;5058896;28;20052;-66
2023/06/04 07:57:54;;;;;;;2.03;1.27;;;20.10;53.80;;;;;;5059316;28;20505;-66
2023/06/04 08:00:21;;;;;;;3.38;1.00;;;20.20;53.50;;;;;;5059285;28;20045;-66
2023/06/04 08:02:50;;;;;;;1.20;1.10;;;20.20;53.50;;;;;;5059267;28;20045;-66
2023/06/04 08:05:17;;;;;;;0.88;0.88;;;20.20;53.70;;;;;;5059645;28;20041;-66
2023/06/04 08:07:46;;;;;;;1.65;1.50;;;20.20;53.50;;;;;;5059446;28;20087;-66
2023/06/04 08:10:13;;;;;;;1.42;1.10;;;20.10;53.40;;;;;;5059003;28;20136;-67
2023/06/04 08:12:40;;;;;;;1.40;1.25;;;20.10;53.80;;;;;;5059584;28;20386;-66
2023/06/04 08:15:08;;;;;;;1.45;1.23;;;20.10;53.90;;;;;;5059555;28;20098;-67
2023/06/04 08:17:35;;;;;;;2.35;1.35;;;20.10;53.90;;;;;;5059035;28;20102;-66
2023/06/04 08:20:06;;;;;;;1.65;1.55;;;20.10;54.40;;;;;;5059150;28;20509;-66
2023/06/04 08:22:33;;;;;;;1.95;1.30;;;20.20;54.20;;;;;;5059319;28;20080;-66
2023/06/04 08:25:00;;;;;;;1.60;1.20;;;20.20;53.70;;;;;;5059393;28;20068;-66
2023/06/04 08:27:27;;;;;;;1.40;1.13;;;20.20;53.70;;;;;;5059210;28;20044;-66
2023/06/04 08:29:55;;;;;;;3.05;1.20;;;20.20;53.80;;;;;;5071302;28;20049;-66
2023/06/04 08:32:22;;;;;;;1.50;1.13;;;20.20;53.60;;;;;;5079243;28;20052;-66
2023/06/04 08:34:49;;;;;;;1.55;1.10;;;20.20;53.60;;;;;;5078104;28;20049;-66
2023/06/04 08:37:17;;;;;;;3.60;1.17;;;20.20;53.90;;;;;;5078967;28;20546;-66
2023/06/04 08:39:44;;;;;;;1.75;1.40;;;20.20;54.00;;;;;;5078896;28;20101;-66
2023/06/04 08:42:22;;;;;;;1.65;1.30;;;20.20;53.80;;;;;;5079360;28;20098;-67
2023/06/04 08:44:52;;;;;;;1.98;1.30;;;20.30;54.20;;;;;;5077448;28;20051;-66
2023/06/04 08:47:22;;;;;;;1.73;1.25;;;20.30;54.50;;;;;;5076185;28;20048;-66
2023/06/04 08:49:53;;;;;;;1.38;1.27;;;20.30;53.90;;;;;;5076157;28;20045;-66
2023/06/04 08:52:21;;;;;;;1.50;1.40;;;20.30;53.90;;;;;;5075186;28;20045;-69
2023/06/04 08:54:51;;;;;;;1.65;1.00;;;20.40;53.90;;;;;;5075949;28;20439;-68
2023/06/04 08:57:21;;;;;;;1.30;1.20;;;20.40;53.70;;;;;;5075546;28;20106;-69
2023/06/04 08:59:49;;;;;;;1.25;1.15;;;20.40;53.70;;;;;;5075877;28;20083;-69
2023/06/04 09:02:17;;;;;;;1.30;1.20;;;20.40;54.00;;;;;;5075083;28;20049;-69
2023/06/04 09:04:45;;;;;;;1.60;1.30;;;20.40;54.00;;;;;;5075447;28;20044;-68
2023/06/04 09:07:14;;;;;;;1.42;1.33;;;20.40;53.60;;;;;;5074298;28;20432;-69
2023/06/04 09:09:46;;;;;;;1.23;1.13;;;20.50;53.50;;;;;;5074076;28;20145;-69
2023/06/04 09:12:27;;;;;;;1.63;1.17;;;20.50;53.40;;;;;;5075434;28;20493;-69
2023/06/04 09:14:54;;;;;;;1.00;1.00;;;20.50;53.60;;;;;;5075343;28;20044;-68
2023/06/04 09:17:25;;;;;;;1.58;1.38;;;20.60;53.60;;;;;;5074010;28;20478;-69
2023/06/04 09:19:53;;;;;;;1.33;1.20;;;20.60;53.20;;;;;;5075219;28;20055;-69
2023/06/04 09:22:32;;;;;;;2.72;1.23;;;20.60;53.20;;;;;;5075084;28;20444;-67
2023/06/04 09:24:59;;;;;;;2.28;1.67;;;20.60;53.30;;;;;;5074871;28;20040;-66
2023/06/04 09:27:28;;;;;;;1.73;1.48;;;20.50;53.30;;;;;;5075608;28;20052;-66
2023/06/04 09:29:56;;;;;;;1.95;1.52;;;20.50;53.30;;;;;;5074755;28;20481;-66
2023/06/04 09:32:29;;;;;;;1.52;1.40;;;20.40;53.70;;;;;;5075396;28;20048;-67
2023/06/04 09:35:12;;;;;;;1.50;1.30;;;20.50;53.80;;;;;;5075090;28;20063;-66
2023/06/04 09:37:40;;;;;;;1.40;1.30;;;20.50;53.60;;;;;;5075008;28;20110;-66
2023/06/04 09:40:08;;;;;;;1.35;1.25;;;20.40;53.70;;;;;;5074448;28;20047;-66
2023/06/04 09:42:44;;;;;;;1.70;1.40;;;20.40;53.90;;;;;;5075030;28;20053;-66
2023/06/04 09:45:12;;;;;;;1.70;1.58;;;20.40;53.90;;;;;;5074947;28;20048;-66
2023/06/04 09:47:43;;;;;;;1.30;1.20;;;20.50;54.00;;;;;;5074939;28;20064;-66
2023/06/04 09:50:13;;;;;;;2.63;1.70;;;20.50;54.20;;;;;;5074596;28;20488;-67
2023/06/04 09:52:40;;;;;;;1.40;1.30;;;20.50;54.10;;;;;;5074501;28;20053;-69
2023/06/04 09:55:19;;;;;;;1.75;1.63;;;20.50;53.80;;;;;;5074643;28;20056;-68
2023/06/04 09:57:49;;;;;;;1.88;1.70;;;20.50;53.80;;;;;;5074395;28;20390;-68
2023/06/04 10:00:17;;;;;;;1.60;1.50;;;20.50;53.80;;;;;;5074427;28;20258;-68
2023/06/04 10:02:46;;;;;;;1.83;1.45;;;20.50;53.80;;;;;;5074525;28;20394;-68
2023/06/04 10:05:14;;;;;;;2.22;1.60;;;20.50;54.10;;;;;;5074364;28;20044;-68
2023/06/04 10:07:44;;;;;;;2.00;1.80;;;20.50;54.10;;;;;;5074592;28;20076;-66
2023/06/04 10:10:16;;;;;;;1.43;1.33;;;20.50;53.80;;;;;;5074299;28;20040;-66
2023/06/04 10:12:45;;;;;;;2.55;1.48;;;20.50;53.80;;;;;;5074167;28;20369;-66
2023/06/04 10:15:13;;;;;;;2.50;1.80;;;20.50;53.90;;;;;;5074089;28;20041;-68
2023/06/04 10:17:41;;;;;;;2.50;1.60;;;20.50;54.20;;;;;;5071733;28;20044;-68
2023/06/04 10:20:08;;;;;;;1.70;1.60;;;20.60;54.10;;;;;;5073918;28;20044;-68
2023/06/04 10:22:37;;;;;;;3.00;2.00;;;20.50;54.00;;;;;;5073720;28;20080;-68
2023/06/04 10:25:05;;;;;;;3.33;1.35;;;20.50;53.90;;;;;;5074190;28;20044;-68
2023/06/04 10:27:35;;;;;;;2.33;1.70;;;20.50;53.80;;;;;;5073890;28;20052;-68
2023/06/04 10:30:04;;;;;;;1.60;1.50;;;20.50;54.20;;;;;;5074151;28;20045;-68
2023/06/04 10:32:31;;;;;;;3.60;1.48;;;20.60;54.20;;;;;;5073843;28;20052;-68
2023/06/04 10:35:04;;;;;;;2.25;1.88;;;20.60;53.80;;;;;;5073956;28;20488;-67
2023/06/04 10:37:31;;;;;;;2.38;2.17;;;20.60;54.00;;;;;;5073803;28;20431;-68
2023/06/04 10:39:59;;;;;;;2.20;1.98;;;20.60;54.00;;;;;;5073940;28;20080;-68
2023/06/04 10:42:37;;;;;;;3.80;1.52;;;20.60;53.80;;;;;;5073640;28;20052;-68
2023/06/04 10:45:05;;;;;;;2.22;1.70;;;20.60;54.10;;;;;;5070490;28;20098;-68
2023/06/04 10:47:37;;;;;;;2.30;1.70;;;20.60;54.30;;;;;;5053538;28;20053;-69
2023/06/04 10:50:11;;;;;;;2.38;1.83;;;20.60;54.00;;;;;;5072241;28;20040;-68
2023/06/04 10:52:52;;;;;;;2.88;1.73;;;20.60;53.80;;;;;;5070855;28;20102;-68
2023/06/04 10:55:19;;;;;;;2.00;1.90;;;20.60;53.80;;;;;;5073095;28;20075;-68
2023/06/04 10:57:54;;;;;;;2.47;1.48;;;20.70;53.90;;;;;;5073489;28;20370;-68
2023/06/04 11:00:22;;;;;;;1.70;1.52;;;20.70;53.90;;;;;;5073389;28;20093;-68
2023/06/04 11:02:53;;;;;;;2.00;1.70;;;20.70;53.90;;;;;;5072714;28;20049;-68
2023/06/04 11:05:21;;;;;;;1.85;1.75;;;20.70;54.00;;;;;;5073252;28;20073;-68
2023/06/04 11:07:49;;;;;;;1.67;1.55;;;20.60;53.80;;;;;;5070965;28;20480;-68
2023/06/04 11:10:17;;;;;;;2.03;1.83;;;20.60;53.90;;;;;;5073268;28;20083;-68
2023/06/04 11:12:46;;;;;;;1.55;1.40;;;20.60;54.00;;;;;;5071997;28;20052;-68
2023/06/04 11:15:15;;;;;;;4.63;1.83;;;20.60;54.30;;;;;;5073275;28;20048;-68
2023/06/04 11:17:51;;;;;;;2.83;1.92;;;20.60;54.20;;;;;;5073198;28;20431;-66
2023/06/04 11:20:19;;;;;;;2.13;1.83;;;20.70;54.10;;;;;;5072865;28;20044;-66
2023/06/04 11:22:58;;;;;;;1.83;1.50;;;20.70;54.00;;;;;;5073432;28;20072;-67
2023/06/04 11:25:26;;;;;;;2.72;1.80;;;20.70;53.90;;;;;;5072239;28;20063;-66
2023/06/04 11:27:55;;;;;;;2.15;1.60;;;20.70;53.90;;;;;;5071874;28;20516;-66
2023/06/04 11:30:22;;;;;;;2.25;1.80;;;20.70;53.90;;;;;;5071829;28;20045;-66
2023/06/04 11:32:59;;;;;;;2.47;1.80;;;20.70;54.40;;;;;;5073064;28;20048;-66
2023/06/04 11:35:26;;;;;;;1.73;1.63;;;20.70;54.40;;;;;;5073136;28;20147;-66
2023/06/04 11:37:55;;;;;;;3.38;1.92;;;20.80;54.40;;;;;;5071709;28;20048;-66
2023/06/04 11:40:22;;;;;;;1.60;1.50;;;20.70;54.10;;;;;;5073513;28;20052;-66
2023/06/04 11:42:50;;;;;;;2.65;1.95;;;20.70;54.00;;;;;;5073002;28;20049;-67
2023/06/04 11:45:20;;;;;;;2.55;2.10;;;20.80;54.10;;;;;;5072818;28;20139;-66
2023/06/04 11:47:48;;;;;;;2.15;1.92;;;20.80;54.20;;;;;;5073170;28;20060;-67
2023/06/04 11:50:16;;;;;;;2.20;2.00;;;20.80;54.00;;;;;;5073155;28;20083;-66
2023/06/04 11:52:43;;;;;;;3.05;1.98;;;20.80;53.90;;;;;;5072558;28;20048;-67
2023/06/04 11:55:11;;;;;;;2.33;1.88;;;20.80;53.90;;;;;;5072856;28;20458;-66
2023/06/04 11:57:40;;;;;;;4.05;1.90;;;20.70;53.90;;;;;;5072369;28;20538;-66
2023/06/04 12:00:11;;;;;;;2.70;1.73;;;20.70;53.90;;;;;;5073071;28;20046;-66
2023/06/04 12:02:52;;;;;;;2.85;2.22;;;20.70;54.20;;;;;;5066569;28;20041;-66
2023/06/04 12:05:29;;;;;;;2.22;1.95;;;20.70;54.20;;;;;;5050873;28;20136;-66
2023/06/04 12:08:09;;;;;;;2.17;1.98;;;20.70;54.20;;;;;;5052992;28;20049;-67
2023/06/04 12:10:41;;;;;;;2.97;2.65;;;20.70;54.00;;;;;;5052319;28;20048;-67
2023/06/04 12:13:09;;;;;;;2.13;1.90;;;20.70;54.20;;;;;;5052447;28;20068;-67
2023/06/04 12:15:36;;;;;;;3.00;1.92;;;20.80;54.20;;;;;;5051854;28;20048;-66
2023/06/04 12:18:05;;;;;;;2.40;2.15;;;20.80;54.00;;;;;;5072223;28;20060;-67
2023/06/04 12:20:34;;;;;;;1.73;1.63;;;20.80;53.90;;;;;;5075213;28;20167;-67
2023/06/04 12:23:03;;;;;;;2.40;2.20;;;20.80;54.00;;;;;;5074558;28;20049;-67
2023/06/04 12:25:30;;;;;;;2.70;1.90;;;20.80;54.00;;;;;;5070148;28;20118;-67
2023/06/04 12:27:58;;;;;;;2.58;2.38;;;20.80;54.10;;;;;;5076390;28;20111;-68
2023/06/04 12:30:36;;;;;;;2.13;1.92;;;20.80;54.70;;;;;;5076084;28;20106;-69
2023/06/04 12:33:03;;;;;;;2.33;2.13;;;20.80;55.00;;;;;;5075632;28;20048;-67
2023/06/04 12:35:31;;;;;;;3.40;2.30;;;20.90;54.20;;;;;;5075481;28;20048;-68
2023/06/04 12:37:58;;;;;;;1.83;1.63;;;20.90;54.30;;;;;;5075829;28;20458;-68
2023/06/04 12:40:25;;;;;;;1.88;1.65;;;20.90;54.40;;;;;;5075904;28;20082;-67
2023/06/04 12:42:52;;;;;;;2.30;1.80;;;20.90;54.40;;;;;;5075866;28;20048;-68
2023/06/04 12:45:19;;;;;;;2.92;2.10;;;20.90;54.30;;;;;;5075873;28;20485;-68
2023/06/04 12:47:47;;;;;;;2.45;2.22;;;20.90;54.20;;;;;;5075848;28;20545;-67
2023/06/04 12:50:14;;;;;;;2.65;2.35;;;21.00;54.20;;;;;;5075631;28;20143;-67
2023/06/04 12:52:42;;;;;;;2.67;2.10;;;21.00;54.10;;;;;;5073120;28;20051;-67
2023/06/04 12:55:09;;;;;;;2.40;2.03;;;21.00;54.10;;;;;;5055052;28;20041;-68
2023/06/04 12:57:36;;;;;;;1.92;1.83;;;21.00;54.10;;;;;;5054532;28;20049;-70